sensor_id;sensor_type;location;lat;lon;timestamp;P1;durP1;ratioP1;P2;durP2;ratioP2
23702;SDS011;12030;50.376;8.762;2023-02-01T00:02:04;5.13;;;3.00;;
23702;SDS011;12030;50.376;8.762;2023-02-01T00:04:29;3.63;;;2.80;;
23702;SDS011;12030;50.376;8.762;2023-02-01T00:06:55;2.80;;;2.50;;
23702;SDS011;12030;50.376;8.762;2023-02-01T00:09:21;4.13;;;3.10;;
23702;SDS011;12030;50.376;8.762;2023-02-01T00:11:46;3.47;;;3.03;;
23702;SDS011;12030;50.376;8.762;2023-02-01T00:14:12;3.83;;;3.00;;
23702;SDS011;12030;50.376;8.762;2023-02-01T00:16:38;4.43;;;3.70;;
23702;SDS011;12030;50.376;8.762;2023-02-01T00:19:05;5.33;;;3.33;;
23702;SDS011;12030;50.376;8.762;2023-02-01T00:21:33;3.90;;;2.90;;
23702;SDS011;12030;50.376;8.762;2023-02-01T00:23:58;5.33;;;3.50;;
23702;SDS011;12030;50.376;8.762;2023-02-01T00:29:04;4.17;;;3.40;;
23702;SDS011;12030;50.376;8.762;2023-02-01T00:31:32;7.03;;;4.27;;
23702;SDS011;12030;50.376;8.762;2023-02-01T00:33:57;6.43;;;4.50;;
23702;SDS011;12030;50.376;8.762;2023-02-01T00:36:23;5.20;;;4.60;;
23702;SDS011;12030;50.376;8.762;2023-02-01T00:38:48;5.10;;;4.60;;
23702;SDS011;12030;50.376;8.762;2023-02-01T00:41:15;6.67;;;4.47;;
23702;SDS011;12030;50.376;8.762;2023-02-01T00:43:43;6.10;;;4.60;;
23702;SDS011;12030;50.376;8.762;2023-02-01T00:46:09;4.80;;;4.30;;
23702;SDS011;12030;50.376;8.762;2023-02-01T00:48:37;6.50;;;4.27;;
23702;SDS011;12030;50.376;8.762;2023-02-01T00:51:04;5.60;;;3.57;;
23702;SDS011;12030;50.376;8.762;2023-02-01T00:53:32;4.47;;;4.07;;
23702;SDS011;12030;50.376;8.762;2023-02-01T00:55:58;4.53;;;4.00;;
23702;SDS011;12030;50.376;8.762;2023-02-01T00:58:24;6.97;;;4.30;;
23702;SDS011;12030;50.376;8.762;2023-02-01T01:01:06;5.93;;;3.77;;
23702;SDS011;12030;50.376;8.762;2023-02-01T01:03:39;5.93;;;4.33;;
23702;SDS011;12030;50.376;8.762;2023-02-01T01:06:10;7.07;;;4.13;;
23702;SDS011;12030;50.376;8.762;2023-02-01T01:08:38;11.77;;;4.00;;
23702;SDS011;12030;50.376;8.762;2023-02-01T01:11:05;4.47;;;3.70;;
23702;SDS011;12030;50.376;8.762;2023-02-01T01:13:32;7.10;;;4.70;;
23702;SDS011;12030;50.376;8.762;2023-02-01T01:15:59;6.13;;;3.63;;
23702;SDS011;12030;50.376;8.762;2023-02-01T01:18:29;6.07;;;4.00;;
23702;SDS011;12030;50.376;8.762;2023-02-01T01:20:55;6.83;;;3.97;;
23702;SDS011;12030;50.376;8.762;2023-02-01T01:23:21;8.17;;;5.93;;
23702;SDS011;12030;50.376;8.762;2023-02-01T01:25:46;5.47;;;4.67;;
23702;SDS011;12030;50.376;8.762;2023-02-01T01:28:12;7.47;;;4.83;;
23702;SDS011;12030;50.376;8.762;2023-02-01T01:30:38;6.07;;;5.03;;
23702;SDS011;12030;50.376;8.762;2023-02-01T01:33:03;5.30;;;4.80;;
23702;SDS011;12030;50.376;8.762;2023-02-01T01:35:29;7.43;;;5.10;;
23702;SDS011;12030;50.376;8.762;2023-02-01T01:37:56;5.53;;;5.03;;
23702;SDS011;12030;50.376;8.762;2023-02-01T01:40:22;7.17;;;5.17;;
23702;SDS011;12030;50.376;8.762;2023-02-01T01:42:48;6.80;;;5.33;;
23702;SDS011;12030;50.376;8.762;2023-02-01T01:47:48;7.93;;;5.40;;
23702;SDS011;12030;50.376;8.762;2023-02-01T01:50:18;6.80;;;5.40;;
23702;SDS011;12030;50.376;8.762;2023-02-01T01:52:50;6.57;;;5.80;;
23702;SDS011;12030;50.376;8.762;2023-02-01T01:55:20;6.37;;;5.47;;
23702;SDS011;12030;50.376;8.762;2023-02-01T01:57:53;7.00;;;5.43;;
23702;SDS011;12030;50.376;8.762;2023-02-01T02:00:24;6.47;;;5.80;;
23702;SDS011;12030;50.376;8.762;2023-02-01T02:02:53;6.40;;;5.73;;
23702;SDS011;12030;50.376;8.762;2023-02-01T02:05:23;7.50;;;5.10;;
23702;SDS011;12030;50.376;8.762;2023-02-01T02:07:49;5.90;;;5.40;;
23702;SDS011;12030;50.376;8.762;2023-02-01T02:10:18;5.97;;;5.40;;
23702;SDS011;12030;50.376;8.762;2023-02-01T02:12:44;6.53;;;4.90;;
23702;SDS011;12030;50.376;8.762;2023-02-01T02:15:13;6.23;;;5.63;;
23702;SDS011;12030;50.376;8.762;2023-02-01T02:17:52;6.37;;;5.33;;
23702;SDS011;12030;50.376;8.762;2023-02-01T02:20:32;5.77;;;5.17;;
23702;SDS011;12030;50.376;8.762;2023-02-01T02:26:12;6.80;;;5.30;;
23702;SDS011;12030;50.376;8.762;2023-02-01T02:31:48;6.50;;;5.47;;
23702;SDS011;12030;50.376;8.762;2023-02-01T02:37:09;6.50;;;5.90;;
23702;SDS011;12030;50.376;8.762;2023-02-01T02:45:09;6.10;;;5.57;;
23702;SDS011;12030;50.376;8.762;2023-02-01T02:48:11;6.93;;;5.80;;
23702;SDS011;12030;50.376;8.762;2023-02-01T02:50:54;6.30;;;5.70;;
23702;SDS011;12030;50.376;8.762;2023-02-01T02:54:09;7.17;;;5.93;;
23702;SDS011;12030;50.376;8.762;2023-02-01T02:56:59;8.67;;;5.10;;
23702;SDS011;12030;50.376;8.762;2023-02-01T02:59:45;8.43;;;5.57;;
23702;SDS011;12030;50.376;8.762;2023-02-01T03:02:31;7.10;;;5.47;;
23702;SDS011;12030;50.376;8.762;2023-02-01T03:05:17;6.77;;;5.33;;
23702;SDS011;12030;50.376;8.762;2023-02-01T03:07:49;6.70;;;5.10;;
23702;SDS011;12030;50.376;8.762;2023-02-01T03:12:51;5.63;;;4.80;;
23702;SDS011;12030;50.376;8.762;2023-02-01T03:15:40;6.33;;;4.70;;
23702;SDS011;12030;50.376;8.762;2023-02-01T03:18:17;7.03;;;4.70;;
23702;SDS011;12030;50.376;8.762;2023-02-01T03:20:47;6.83;;;4.27;;
23702;SDS011;12030;50.376;8.762;2023-02-01T03:23:17;5.80;;;4.43;;
23702;SDS011;12030;50.376;8.762;2023-02-01T03:25:47;6.87;;;4.10;;
23702;SDS011;12030;50.376;8.762;2023-02-01T03:28:15;8.00;;;3.73;;
23702;SDS011;12030;50.376;8.762;2023-02-01T03:30:46;9.60;;;3.30;;
23702;SDS011;12030;50.376;8.762;2023-02-01T03:33:15;7.20;;;3.20;;
23702;SDS011;12030;50.376;8.762;2023-02-01T03:38:19;8.57;;;3.03;;
23702;SDS011;12030;50.376;8.762;2023-02-01T03:43:31;8.43;;;2.70;;
23702;SDS011;12030;50.376;8.762;2023-02-01T03:46:05;10.03;;;2.50;;
23702;SDS011;12030;50.376;8.762;2023-02-01T03:48:36;6.50;;;2.50;;
23702;SDS011;12030;50.376;8.762;2023-02-01T03:51:04;8.40;;;2.70;;
23702;SDS011;12030;50.376;8.762;2023-02-01T03:53:31;8.80;;;3.03;;
23702;SDS011;12030;50.376;8.762;2023-02-01T03:56:01;8.87;;;2.77;;
23702;SDS011;12030;50.376;8.762;2023-02-01T03:58:27;8.57;;;2.80;;
23702;SDS011;12030;50.376;8.762;2023-02-01T04:00:54;11.30;;;2.90;;
23702;SDS011;12030;50.376;8.762;2023-02-01T04:03:22;6.77;;;2.73;;
23702;SDS011;12030;50.376;8.762;2023-02-01T04:05:49;8.13;;;3.43;;
23702;SDS011;12030;50.376;8.762;2023-02-01T04:08:15;8.30;;;2.30;;
23702;SDS011;12030;50.376;8.762;2023-02-01T04:10:40;6.87;;;3.07;;
23702;SDS011;12030;50.376;8.762;2023-02-01T04:13:06;9.57;;;2.70;;
23702;SDS011;12030;50.376;8.762;2023-02-01T04:15:32;10.93;;;2.60;;
23702;SDS011;12030;50.376;8.762;2023-02-01T04:17:59;6.03;;;2.20;;
23702;SDS011;12030;50.376;8.762;2023-02-01T04:20:25;8.17;;;2.77;;
23702;SDS011;12030;50.376;8.762;2023-02-01T04:22:50;10.97;;;2.63;;
23702;SDS011;12030;50.376;8.762;2023-02-01T04:25:16;10.07;;;3.03;;
23702;SDS011;12030;50.376;8.762;2023-02-01T04:27:42;9.13;;;2.50;;
23702;SDS011;12030;50.376;8.762;2023-02-01T04:30:08;8.23;;;2.10;;
23702;SDS011;12030;50.376;8.762;2023-02-01T04:32:35;10.17;;;2.77;;
23702;SDS011;12030;50.376;8.762;2023-02-01T04:35:04;7.07;;;2.93;;
23702;SDS011;12030;50.376;8.762;2023-02-01T04:37:30;8.43;;;2.57;;
23702;SDS011;12030;50.376;8.762;2023-02-01T04:39:55;8.63;;;3.27;;
23702;SDS011;12030;50.376;8.762;2023-02-01T04:42:21;6.80;;;3.40;;
23702;SDS011;12030;50.376;8.762;2023-02-01T04:44:47;8.23;;;3.03;;
23702;SDS011;12030;50.376;8.762;2023-02-01T04:47:12;6.60;;;3.20;;
23702;SDS011;12030;50.376;8.762;2023-02-01T04:49:39;8.67;;;3.37;;
23702;SDS011;12030;50.376;8.762;2023-02-01T04:52:04;6.67;;;3.40;;
23702;SDS011;12030;50.376;8.762;2023-02-01T04:54:30;7.93;;;3.60;;
23702;SDS011;12030;50.376;8.762;2023-02-01T04:56:55;5.70;;;3.43;;
23702;SDS011;12030;50.376;8.762;2023-02-01T04:59:21;8.87;;;3.70;;
23702;SDS011;12030;50.376;8.762;2023-02-01T05:01:47;9.70;;;3.87;;
23702;SDS011;12030;50.376;8.762;2023-02-01T05:04:12;8.23;;;4.13;;
23702;SDS011;12030;50.376;8.762;2023-02-01T05:06:38;8.03;;;3.67;;
23702;SDS011;12030;50.376;8.762;2023-02-01T05:09:03;8.07;;;3.83;;
23702;SDS011;12030;50.376;8.762;2023-02-01T05:11:29;7.33;;;3.70;;
23702;SDS011;12030;50.376;8.762;2023-02-01T05:14:13;7.90;;;3.57;;
23702;SDS011;12030;50.376;8.762;2023-02-01T05:16:38;7.67;;;3.53;;
23702;SDS011;12030;50.376;8.762;2023-02-01T05:19:04;9.20;;;3.77;;
23702;SDS011;12030;50.376;8.762;2023-02-01T05:21:29;7.33;;;3.80;;
23702;SDS011;12030;50.376;8.762;2023-02-01T05:23:54;8.07;;;3.70;;
23702;SDS011;12030;50.376;8.762;2023-02-01T05:26:42;9.97;;;3.67;;
23702;SDS011;12030;50.376;8.762;2023-02-01T05:29:08;7.13;;;3.90;;
23702;SDS011;12030;50.376;8.762;2023-02-01T05:31:34;6.33;;;3.37;;
23702;SDS011;12030;50.376;8.762;2023-02-01T05:34:00;9.07;;;3.60;;
23702;SDS011;12030;50.376;8.762;2023-02-01T05:36:25;7.13;;;3.37;;
23702;SDS011;12030;50.376;8.762;2023-02-01T05:38:51;9.07;;;3.20;;
23702;SDS011;12030;50.376;8.762;2023-02-01T05:41:17;9.03;;;2.73;;
23702;SDS011;12030;50.376;8.762;2023-02-01T05:43:42;10.53;;;3.13;;
23702;SDS011;12030;50.376;8.762;2023-02-01T05:46:08;9.50;;;3.27;;
23702;SDS011;12030;50.376;8.762;2023-02-01T05:48:37;11.07;;;3.30;;
23702;SDS011;12030;50.376;8.762;2023-02-01T05:51:03;8.37;;;2.73;;
23702;SDS011;12030;50.376;8.762;2023-02-01T05:53:29;9.70;;;2.53;;
23702;SDS011;12030;50.376;8.762;2023-02-01T05:55:54;14.03;;;3.43;;
23702;SDS011;12030;50.376;8.762;2023-02-01T05:58:20;13.17;;;2.73;;
23702;SDS011;12030;50.376;8.762;2023-02-01T06:00:45;11.33;;;3.00;;
23702;SDS011;12030;50.376;8.762;2023-02-01T06:03:11;12.30;;;3.00;;
23702;SDS011;12030;50.376;8.762;2023-02-01T06:05:36;9.40;;;3.03;;
23702;SDS011;12030;50.376;8.762;2023-02-01T06:08:02;13.70;;;2.97;;
23702;SDS011;12030;50.376;8.762;2023-02-01T06:10:27;12.57;;;3.20;;
23702;SDS011;12030;50.376;8.762;2023-02-01T06:12:53;11.53;;;3.13;;
23702;SDS011;12030;50.376;8.762;2023-02-01T06:15:18;12.63;;;2.97;;
23702;SDS011;12030;50.376;8.762;2023-02-01T06:17:45;13.47;;;3.40;;
23702;SDS011;12030;50.376;8.762;2023-02-01T06:20:11;10.57;;;3.20;;
23702;SDS011;12030;50.376;8.762;2023-02-01T06:22:38;14.80;;;3.20;;
23702;SDS011;12030;50.376;8.762;2023-02-01T06:25:05;9.57;;;2.63;;
23702;SDS011;12030;50.376;8.762;2023-02-01T06:27:32;11.37;;;2.87;;
23702;SDS011;12030;50.376;8.762;2023-02-01T06:29:58;11.97;;;3.13;;
23702;SDS011;12030;50.376;8.762;2023-02-01T06:32:24;12.30;;;3.20;;
23702;SDS011;12030;50.376;8.762;2023-02-01T06:34:49;7.23;;;2.57;;
23702;SDS011;12030;50.376;8.762;2023-02-01T06:37:17;14.17;;;2.97;;
23702;SDS011;12030;50.376;8.762;2023-02-01T06:39:43;12.27;;;2.83;;
23702;SDS011;12030;50.376;8.762;2023-02-01T06:42:09;10.30;;;2.60;;
23702;SDS011;12030;50.376;8.762;2023-02-01T06:44:34;11.47;;;2.67;;
23702;SDS011;12030;50.376;8.762;2023-02-01T06:47:00;10.60;;;2.57;;
23702;SDS011;12030;50.376;8.762;2023-02-01T06:49:25;10.80;;;3.00;;
23702;SDS011;12030;50.376;8.762;2023-02-01T06:51:51;9.63;;;2.80;;
23702;SDS011;12030;50.376;8.762;2023-02-01T06:54:16;8.10;;;2.60;;
23702;SDS011;12030;50.376;8.762;2023-02-01T06:56:42;13.50;;;2.77;;
23702;SDS011;12030;50.376;8.762;2023-02-01T06:59:07;11.40;;;2.47;;
23702;SDS011;12030;50.376;8.762;2023-02-01T07:01:33;8.37;;;2.53;;
23702;SDS011;12030;50.376;8.762;2023-02-01T07:03:59;9.10;;;2.53;;
23702;SDS011;12030;50.376;8.762;2023-02-01T07:06:25;11.63;;;3.00;;
23702;SDS011;12030;50.376;8.762;2023-02-01T07:08:51;13.73;;;3.37;;
23702;SDS011;12030;50.376;8.762;2023-02-01T07:11:17;12.27;;;2.80;;
23702;SDS011;12030;50.376;8.762;2023-02-01T07:13:43;12.33;;;2.87;;
23702;SDS011;12030;50.376;8.762;2023-02-01T07:16:13;11.20;;;2.73;;
23702;SDS011;12030;50.376;8.762;2023-02-01T07:18:40;7.77;;;2.47;;
23702;SDS011;12030;50.376;8.762;2023-02-01T07:21:06;8.40;;;2.60;;
23702;SDS011;12030;50.376;8.762;2023-02-01T07:23:32;10.13;;;2.87;;
23702;SDS011;12030;50.376;8.762;2023-02-01T07:25:58;13.40;;;3.27;;
23702;SDS011;12030;50.376;8.762;2023-02-01T07:28:26;12.47;;;3.10;;
23702;SDS011;12030;50.376;8.762;2023-02-01T07:31:07;8.47;;;2.47;;
23702;SDS011;12030;50.376;8.762;2023-02-01T07:33:34;11.60;;;3.10;;
23702;SDS011;12030;50.376;8.762;2023-02-01T07:36:00;9.07;;;2.67;;
23702;SDS011;12030;50.376;8.762;2023-02-01T07:38:28;10.03;;;2.87;;
23702;SDS011;12030;50.376;8.762;2023-02-01T07:40:58;9.97;;;2.43;;
23702;SDS011;12030;50.376;8.762;2023-02-01T07:43:24;14.47;;;2.93;;
23702;SDS011;12030;50.376;8.762;2023-02-01T07:45:51;12.20;;;2.37;;
23702;SDS011;12030;50.376;8.762;2023-02-01T07:48:17;12.00;;;2.97;;
23702;SDS011;12030;50.376;8.762;2023-02-01T07:50:43;10.47;;;2.80;;
23702;SDS011;12030;50.376;8.762;2023-02-01T07:53:08;8.07;;;2.70;;
23702;SDS011;12030;50.376;8.762;2023-02-01T07:55:34;7.33;;;2.53;;
23702;SDS011;12030;50.376;8.762;2023-02-01T07:58:02;14.70;;;3.17;;
23702;SDS011;12030;50.376;8.762;2023-02-01T08:00:28;12.60;;;3.00;;
23702;SDS011;12030;50.376;8.762;2023-02-01T08:03:12;9.00;;;2.10;;
23702;SDS011;12030;50.376;8.762;2023-02-01T08:05:38;11.30;;;2.47;;
23702;SDS011;12030;50.376;8.762;2023-02-01T08:08:03;7.83;;;2.50;;
23702;SDS011;12030;50.376;8.762;2023-02-01T08:10:29;11.53;;;2.90;;
23702;SDS011;12030;50.376;8.762;2023-02-01T08:12:57;10.60;;;2.60;;
23702;SDS011;12030;50.376;8.762;2023-02-01T08:15:24;7.87;;;1.90;;
23702;SDS011;12030;50.376;8.762;2023-02-01T08:17:51;8.20;;;2.90;;
23702;SDS011;12030;50.376;8.762;2023-02-01T08:20:17;9.23;;;2.80;;
23702;SDS011;12030;50.376;8.762;2023-02-01T08:22:43;13.93;;;3.60;;
23702;SDS011;12030;50.376;8.762;2023-02-01T08:25:09;9.17;;;3.17;;
23702;SDS011;12030;50.376;8.762;2023-02-01T08:27:35;10.47;;;2.83;;
23702;SDS011;12030;50.376;8.762;2023-02-01T08:30:02;8.73;;;2.60;;
23702;SDS011;12030;50.376;8.762;2023-02-01T08:32:28;11.93;;;2.40;;
23702;SDS011;12030;50.376;8.762;2023-02-01T08:34:53;8.77;;;2.67;;
23702;SDS011;12030;50.376;8.762;2023-02-01T08:37:19;9.47;;;2.70;;
23702;SDS011;12030;50.376;8.762;2023-02-01T08:39:45;10.50;;;2.67;;
23702;SDS011;12030;50.376;8.762;2023-02-01T08:42:11;11.03;;;2.10;;
23702;SDS011;12030;50.376;8.762;2023-02-01T08:44:55;13.63;;;2.80;;
23702;SDS011;12030;50.376;8.762;2023-02-01T08:47:21;8.50;;;2.30;;
23702;SDS011;12030;50.376;8.762;2023-02-01T08:49:47;7.83;;;2.47;;
23702;SDS011;12030;50.376;8.762;2023-02-01T08:52:13;9.23;;;3.20;;
23702;SDS011;12030;50.376;8.762;2023-02-01T08:54:39;13.03;;;2.47;;
23702;SDS011;12030;50.376;8.762;2023-02-01T08:57:06;9.43;;;2.83;;
23702;SDS011;12030;50.376;8.762;2023-02-01T08:59:31;12.53;;;3.13;;
23702;SDS011;12030;50.376;8.762;2023-02-01T09:01:57;12.80;;;3.10;;
23702;SDS011;12030;50.376;8.762;2023-02-01T09:04:23;11.23;;;2.80;;
23702;SDS011;12030;50.376;8.762;2023-02-01T09:06:48;14.53;;;3.33;;
23702;SDS011;12030;50.376;8.762;2023-02-01T09:09:14;12.53;;;3.10;;
23702;SDS011;12030;50.376;8.762;2023-02-01T09:11:39;11.23;;;2.93;;
23702;SDS011;12030;50.376;8.762;2023-02-01T09:14:05;11.70;;;3.10;;
23702;SDS011;12030;50.376;8.762;2023-02-01T09:16:31;9.67;;;2.80;;
23702;SDS011;12030;50.376;8.762;2023-02-01T09:18:56;10.67;;;3.43;;
23702;SDS011;12030;50.376;8.762;2023-02-01T09:21:22;12.60;;;3.20;;
23702;SDS011;12030;50.376;8.762;2023-02-01T09:23:47;11.33;;;2.80;;
23702;SDS011;12030;50.376;8.762;2023-02-01T09:26:15;11.00;;;3.37;;
23702;SDS011;12030;50.376;8.762;2023-02-01T09:28:41;8.90;;;2.70;;
23702;SDS011;12030;50.376;8.762;2023-02-01T09:31:06;15.73;;;3.17;;
23702;SDS011;12030;50.376;8.762;2023-02-01T09:33:32;9.43;;;2.60;;
23702;SDS011;12030;50.376;8.762;2023-02-01T09:35:58;13.43;;;3.13;;
23702;SDS011;12030;50.376;8.762;2023-02-01T09:38:26;14.30;;;2.73;;
23702;SDS011;12030;50.376;8.762;2023-02-01T09:40:52;11.43;;;2.90;;
23702;SDS011;12030;50.376;8.762;2023-02-01T09:43:29;11.57;;;2.80;;
23702;SDS011;12030;50.376;8.762;2023-02-01T09:48:39;15.13;;;3.43;;
23702;SDS011;12030;50.376;8.762;2023-02-01T09:51:19;10.77;;;2.53;;
23702;SDS011;12030;50.376;8.762;2023-02-01T09:53:51;13.03;;;2.93;;
23702;SDS011;12030;50.376;8.762;2023-02-01T09:56:36;11.20;;;3.00;;
23702;SDS011;12030;50.376;8.762;2023-02-01T10:01:40;10.60;;;2.67;;
23702;SDS011;12030;50.376;8.762;2023-02-01T10:04:08;13.40;;;3.07;;
23702;SDS011;12030;50.376;8.762;2023-02-01T10:12:17;9.03;;;2.90;;
23702;SDS011;12030;50.376;8.762;2023-02-01T10:14:59;9.17;;;2.97;;
23702;SDS011;12030;50.376;8.762;2023-02-01T10:17:45;11.73;;;2.83;;
23702;SDS011;12030;50.376;8.762;2023-02-01T10:22:59;9.30;;;2.80;;
23702;SDS011;12030;50.376;8.762;2023-02-01T10:25:44;8.37;;;2.53;;
23702;SDS011;12030;50.376;8.762;2023-02-01T10:28:19;14.33;;;2.80;;
23702;SDS011;12030;50.376;8.762;2023-02-01T10:30:47;10.03;;;2.17;;
23702;SDS011;12030;50.376;8.762;2023-02-01T10:33:17;9.43;;;2.50;;
23702;SDS011;12030;50.376;8.762;2023-02-01T10:35:49;10.27;;;2.77;;
23702;SDS011;12030;50.376;8.762;2023-02-01T10:38:24;9.07;;;2.60;;
23702;SDS011;12030;50.376;8.762;2023-02-01T10:40:51;11.13;;;3.07;;
23702;SDS011;12030;50.376;8.762;2023-02-01T10:43:20;11.80;;;2.77;;
23702;SDS011;12030;50.376;8.762;2023-02-01T10:45:45;12.30;;;2.90;;
23702;SDS011;12030;50.376;8.762;2023-02-01T10:48:11;11.93;;;2.50;;
23702;SDS011;12030;50.376;8.762;2023-02-01T10:50:38;8.03;;;2.80;;
23702;SDS011;12030;50.376;8.762;2023-02-01T10:53:18;10.47;;;2.70;;
23702;SDS011;12030;50.376;8.762;2023-02-01T10:55:49;10.87;;;2.43;;
23702;SDS011;12030;50.376;8.762;2023-02-01T10:58:35;9.93;;;2.37;;
23702;SDS011;12030;50.376;8.762;2023-02-01T11:01:08;13.80;;;3.00;;
23702;SDS011;12030;50.376;8.762;2023-02-01T11:03:57;8.40;;;2.20;;
23702;SDS011;12030;50.376;8.762;2023-02-01T11:07:08;7.40;;;2.30;;
23702;SDS011;12030;50.376;8.762;2023-02-01T11:09:21;10.07;;;2.33;;
23702;SDS011;12030;50.376;8.762;2023-02-01T11:14:19;8.57;;;2.00;;
23702;SDS011;12030;50.376;8.762;2023-02-01T11:16:58;11.40;;;2.57;;
23702;SDS011;12030;50.376;8.762;2023-02-01T11:19:25;7.43;;;2.47;;
23702;SDS011;12030;50.376;8.762;2023-02-01T11:21:52;9.77;;;2.00;;
23702;SDS011;12030;50.376;8.762;2023-02-01T11:24:26;8.03;;;2.50;;
23702;SDS011;12030;50.376;8.762;2023-02-01T11:26:55;8.67;;;2.43;;
23702;SDS011;12030;50.376;8.762;2023-02-01T11:29:22;10.37;;;2.83;;
23702;SDS011;12030;50.376;8.762;2023-02-01T11:31:54;10.83;;;2.87;;
23702;SDS011;12030;50.376;8.762;2023-02-01T11:34:22;8.77;;;2.43;;
23702;SDS011;12030;50.376;8.762;2023-02-01T11:36:58;10.23;;;2.50;;
23702;SDS011;12030;50.376;8.762;2023-02-01T11:39:29;8.20;;;2.03;;
23702;SDS011;12030;50.376;8.762;2023-02-01T11:42:11;9.07;;;2.70;;
23702;SDS011;12030;50.376;8.762;2023-02-01T11:44:40;7.33;;;2.17;;
23702;SDS011;12030;50.376;8.762;2023-02-01T11:50:09;9.53;;;2.30;;
23702;SDS011;12030;50.376;8.762;2023-02-01T11:52:51;10.13;;;2.30;;
23702;SDS011;12030;50.376;8.762;2023-02-01T11:58:58;8.63;;;2.30;;
23702;SDS011;12030;50.376;8.762;2023-02-01T12:06:15;11.03;;;2.53;;
23702;SDS011;12030;50.376;8.762;2023-02-01T12:22:55;7.27;;;2.30;;
23702;SDS011;12030;50.376;8.762;2023-02-01T12:28:18;7.10;;;2.33;;
23702;SDS011;12030;50.376;8.762;2023-02-01T12:34:09;11.37;;;2.37;;
23702;SDS011;12030;50.376;8.762;2023-02-01T12:37:06;8.53;;;1.90;;
23702;SDS011;12030;50.376;8.762;2023-02-01T12:39:44;8.17;;;2.03;;
23702;SDS011;12030;50.376;8.762;2023-02-01T12:44:59;6.73;;;2.00;;
23702;SDS011;12030;50.376;8.762;2023-02-01T12:47:40;8.80;;;1.87;;
23702;SDS011;12030;50.376;8.762;2023-02-01T12:50:23;10.50;;;2.60;;
23702;SDS011;12030;50.376;8.762;2023-02-01T12:52:54;11.23;;;2.67;;
23702;SDS011;12030;50.376;8.762;2023-02-01T12:55:36;6.17;;;2.20;;
23702;SDS011;12030;50.376;8.762;2023-02-01T12:58:21;8.20;;;2.10;;
23702;SDS011;12030;50.376;8.762;2023-02-01T13:00:58;8.13;;;2.10;;
23702;SDS011;12030;50.376;8.762;2023-02-01T13:03:38;7.37;;;2.47;;
23702;SDS011;12030;50.376;8.762;2023-02-01T13:08:56;6.00;;;2.27;;
23702;SDS011;12030;50.376;8.762;2023-02-01T13:11:31;7.63;;;2.43;;
23702;SDS011;12030;50.376;8.762;2023-02-01T13:17:12;7.03;;;2.20;;
23702;SDS011;12030;50.376;8.762;2023-02-01T13:22:36;9.70;;;2.10;;
23702;SDS011;12030;50.376;8.762;2023-02-01T13:25:17;6.17;;;2.33;;
23702;SDS011;12030;50.376;8.762;2023-02-01T13:27:49;5.00;;;1.60;;
23702;SDS011;12030;50.376;8.762;2023-02-01T13:33:06;10.80;;;2.30;;
23702;SDS011;12030;50.376;8.762;2023-02-01T13:41:24;8.30;;;2.20;;
23702;SDS011;12030;50.376;8.762;2023-02-01T13:43:53;10.20;;;2.07;;
23702;SDS011;12030;50.376;8.762;2023-02-01T13:46:23;10.03;;;2.50;;
23702;SDS011;12030;50.376;8.762;2023-02-01T13:48:50;8.93;;;2.10;;
23702;SDS011;12030;50.376;8.762;2023-02-01T13:51:19;10.50;;;2.47;;
23702;SDS011;12030;50.376;8.762;2023-02-01T13:54:05;11.30;;;2.37;;
23702;SDS011;12030;50.376;8.762;2023-02-01T13:56:39;9.97;;;2.47;;
23702;SDS011;12030;50.376;8.762;2023-02-01T14:02:35;8.27;;;2.37;;
23702;SDS011;12030;50.376;8.762;2023-02-01T14:05:01;9.33;;;2.20;;
23702;SDS011;12030;50.376;8.762;2023-02-01T14:07:26;6.60;;;2.50;;
23702;SDS011;12030;50.376;8.762;2023-02-01T14:09:52;8.13;;;2.50;;
23702;SDS011;12030;50.376;8.762;2023-02-01T14:15:18;9.60;;;2.30;;
23702;SDS011;12030;50.376;8.762;2023-02-01T14:17:48;9.13;;;2.00;;
23702;SDS011;12030;50.376;8.762;2023-02-01T14:23:13;8.43;;;2.20;;
23702;SDS011;12030;50.376;8.762;2023-02-01T14:25:41;7.07;;;1.80;;
23702;SDS011;12030;50.376;8.762;2023-02-01T14:28:11;8.80;;;2.30;;
23702;SDS011;12030;50.376;8.762;2023-02-01T14:30:47;8.63;;;2.23;;
23702;SDS011;12030;50.376;8.762;2023-02-01T14:33:20;9.67;;;2.03;;
23702;SDS011;12030;50.376;8.762;2023-02-01T14:36:01;7.80;;;2.13;;
23702;SDS011;12030;50.376;8.762;2023-02-01T14:38:30;7.67;;;2.10;;
23702;SDS011;12030;50.376;8.762;2023-02-01T14:41:10;5.77;;;1.90;;
23702;SDS011;12030;50.376;8.762;2023-02-01T14:43:51;7.23;;;2.07;;
23702;SDS011;12030;50.376;8.762;2023-02-01T14:49:38;9.70;;;2.50;;
23702;SDS011;12030;50.376;8.762;2023-02-01T14:52:13;7.37;;;1.93;;
23702;SDS011;12030;50.376;8.762;2023-02-01T14:54:42;10.43;;;1.97;;
23702;SDS011;12030;50.376;8.762;2023-02-01T14:57:15;12.20;;;2.57;;
23702;SDS011;12030;50.376;8.762;2023-02-01T14:59:44;6.17;;;1.70;;
23702;SDS011;12030;50.376;8.762;2023-02-01T15:02:21;8.10;;;1.90;;
23702;SDS011;12030;50.376;8.762;2023-02-01T15:04:53;7.47;;;2.07;;
23702;SDS011;12030;50.376;8.762;2023-02-01T15:07:20;6.67;;;2.17;;
23702;SDS011;12030;50.376;8.762;2023-02-01T15:09:47;9.87;;;2.23;;
23702;SDS011;12030;50.376;8.762;2023-02-01T15:12:17;6.40;;;1.70;;
23702;SDS011;12030;50.376;8.762;2023-02-01T15:17:54;8.90;;;2.27;;
23702;SDS011;12030;50.376;8.762;2023-02-01T15:20:29;11.13;;;2.10;;
23702;SDS011;12030;50.376;8.762;2023-02-01T15:25:27;8.97;;;2.33;;
23702;SDS011;12030;50.376;8.762;2023-02-01T15:27:54;7.10;;;2.10;;
23702;SDS011;12030;50.376;8.762;2023-02-01T15:32:46;7.83;;;1.87;;
23702;SDS011;12030;50.376;8.762;2023-02-01T15:40:53;9.50;;;1.73;;
23702;SDS011;12030;50.376;8.762;2023-02-01T15:43:20;6.53;;;1.60;;
23702;SDS011;12030;50.376;8.762;2023-02-01T15:45:47;8.93;;;1.60;;
23702;SDS011;12030;50.376;8.762;2023-02-01T15:48:15;11.83;;;2.03;;
23702;SDS011;12030;50.376;8.762;2023-02-01T15:50:48;7.30;;;1.97;;
23702;SDS011;12030;50.376;8.762;2023-02-01T15:53:16;8.80;;;1.93;;
23702;SDS011;12030;50.376;8.762;2023-02-01T15:55:45;8.63;;;2.03;;
23702;SDS011;12030;50.376;8.762;2023-02-01T15:58:17;8.40;;;2.20;;
23702;SDS011;12030;50.376;8.762;2023-02-01T16:00:46;12.17;;;2.53;;
23702;SDS011;12030;50.376;8.762;2023-02-01T16:06:04;9.80;;;1.67;;
23702;SDS011;12030;50.376;8.762;2023-02-01T16:08:37;8.67;;;2.00;;
23702;SDS011;12030;50.376;8.762;2023-02-01T16:11:23;12.67;;;2.33;;
23702;SDS011;12030;50.376;8.762;2023-02-01T16:13:52;8.23;;;2.10;;
23702;SDS011;12030;50.376;8.762;2023-02-01T16:16:18;9.37;;;2.53;;
23702;SDS011;12030;50.376;8.762;2023-02-01T16:18:43;6.77;;;1.77;;
23702;SDS011;12030;50.376;8.762;2023-02-01T16:21:09;8.27;;;2.07;;
23702;SDS011;12030;50.376;8.762;2023-02-01T16:23:36;8.20;;;2.00;;
23702;SDS011;12030;50.376;8.762;2023-02-01T16:26:02;7.73;;;2.40;;
23702;SDS011;12030;50.376;8.762;2023-02-01T16:28:29;9.80;;;2.33;;
23702;SDS011;12030;50.376;8.762;2023-02-01T16:30:54;10.00;;;2.43;;
23702;SDS011;12030;50.376;8.762;2023-02-01T16:33:20;7.83;;;2.20;;
23702;SDS011;12030;50.376;8.762;2023-02-01T16:35:47;9.17;;;2.30;;
23702;SDS011;12030;50.376;8.762;2023-02-01T16:38:14;6.23;;;1.77;;
23702;SDS011;12030;50.376;8.762;2023-02-01T16:40:43;8.90;;;1.87;;
23702;SDS011;12030;50.376;8.762;2023-02-01T16:45:38;8.40;;;2.17;;
23702;SDS011;12030;50.376;8.762;2023-02-01T16:48:05;6.33;;;1.97;;
23702;SDS011;12030;50.376;8.762;2023-02-01T16:50:31;6.77;;;1.70;;
23702;SDS011;12030;50.376;8.762;2023-02-01T16:52:58;7.37;;;2.13;;
23702;SDS011;12030;50.376;8.762;2023-02-01T16:55:23;8.13;;;1.93;;
23702;SDS011;12030;50.376;8.762;2023-02-01T16:57:50;7.63;;;2.17;;
23702;SDS011;12030;50.376;8.762;2023-02-01T17:00:15;7.13;;;1.87;;
23702;SDS011;12030;50.376;8.762;2023-02-01T17:02:42;8.07;;;2.20;;
23702;SDS011;12030;50.376;8.762;2023-02-01T17:05:08;8.33;;;2.10;;